Observations for Trim Patrick St
| Time | AQI | Temp °C | Hum % | Pres Pa | CO μg/m³ | H₂S μg/m³ | NO μg/m³ | NO₂ μg/m³ | O₃ μg/m³ | SO₂ μg/m³ | PM1 μg/m³ | PM2.5 μg/m³ | PM10 μg/m³ |
|---|---|---|---|---|---|---|---|---|---|---|---|---|---|
| Thursday 6 August 2026 | |||||||||||||
| 04:50 | 2 | 12.2 | 77 | 38,460 | 0.28 | 1.35 | 3.69 | 14.57 | 43.29 | 0 | 2.86 | 6.14 | 6.75 |
| 04:48 | 2 | 12.2 | 77 | 38,460 | 0.29 | 0.29 | 3.77 | 11.81 | 32.23 | 0 | 4.57 | 7.54 | 8.3 |
| 04:47 | 2 | 12.2 | 77 | 38,460 | 0.29 | 0.22 | 3.79 | 10.6 | 29.56 | 0 | 2.86 | 6.85 | 7.54 |
| 04:46 | 2 | 12.2 | 76 | 38,460 | 0.29 | 0.89 | 3.75 | 13.34 | 41.78 | 0 | 3.71 | 6.87 | 7.56 |
| 04:43 | 2 | 12.3 | 77 | 38,460 | 0.29 | 1.28 | 3.75 | 12.7 | 40.39 | 0 | 4.57 | 7.56 | 8.32 |
| 04:42 | 2 | 12.3 | 76 | 38,460 | 0.28 | 0.66 | 3.74 | 13.44 | 48.35 | 0 | 3.71 | 6.86 | 7.55 |
| 04:41 | 2 | 12.3 | 76 | 38,460 | 0.28 | 0.68 | 3.7 | 11.6 | 35.65 | 0 | 2.86 | 6.86 | 7.55 |
| 04:40 | 2 | 12.3 | 76 | 38,460 | 0.28 | 0.63 | 3.67 | 11.92 | 36.91 | 0 | 2.86 | 6.87 | 7.56 |
| 04:39 | 2 | 12.3 | 76 | 38,460 | 0.28 | 0.17 | 3.76 | 11.68 | 34.56 | 0 | 2.86 | 6.88 | 7.57 |
| 04:37 | 2 | 12.4 | 76 | 38,460 | 0.28 | 0 | 3.71 | 10.44 | 31.42 | 0 | 2.86 | 6.93 | 7.62 |
| 04:36 | 2 | 12.4 | 76 | 38,460 | 0.28 | 0.63 | 3.72 | 11.41 | 35.53 | 0 | 3.71 | 7.59 | 8.35 |
| 04:35 | 2 | 12.4 | 76 | 38,460 | 0.29 | 0.53 | 3.72 | 11.37 | 34.73 | 0 | 3.71 | 7.61 | 8.37 |
| 04:34 | 2 | 12.4 | 75 | 38,460 | 0.29 | 0.37 | 3.69 | 10.82 | 34.45 | 0 | 4.57 | 8.38 | 9.22 |
| 04:33 | 2 | 12.5 | 76 | 38,460 | 0.29 | 0.56 | 3.67 | 11.75 | 36.89 | 0 | 4.57 | 7.63 | 8.39 |
| 04:32 | 2 | 12.5 | 76 | 38,460 | 0.29 | 0.74 | 3.63 | 11.59 | 34.57 | 0 | 3.71 | 7.59 | 8.35 |
| 04:31 | 2 | 12.5 | 75 | 38,460 | 0.29 | 0.56 | 3.7 | 12.53 | 41.78 | 0 | 4.57 | 9.79 | 10.77 |
| 04:30 | 2 | 12.5 | 75 | 38,460 | 0.3 | 0.22 | 3.63 | 11.65 | 32.13 | 0 | 4.57 | 7.68 | 8.45 |
| 04:29 | 2 | 12.5 | 75 | 38,460 | 0.31 | 0 | 3.71 | 9.6 | 32.78 | 0 | 5.43 | 10.51 | 11.56 |
| 04:28 | 2 | 12.5 | 75 | 38,460 | 0.31 | 0.74 | 3.6 | 10.48 | 35.02 | 0 | 5.43 | 11.21 | 12.33 |
| 04:27 | 2 | 12.5 | 76 | 38,460 | 0.31 | 0.5 | 3.61 | 12.09 | 38.51 | 0 | 5.43 | 11.17 | 12.28 |